createdAt,value
2022-11-25T00:02:24.782Z,3.13
2022-11-25T00:04:52.120Z,4.90
2022-11-25T00:07:19.275Z,4.05
2022-11-25T00:09:46.601Z,3.80
2022-11-25T00:12:13.804Z,4.00
2022-11-25T00:14:40.978Z,5.03
2022-11-25T00:17:08.228Z,4.55
2022-11-25T00:19:35.466Z,5.47
2022-11-25T00:22:02.610Z,4.60
2022-11-25T00:24:29.875Z,5.38
2022-11-25T00:26:57.039Z,4.18
2022-11-25T00:29:24.311Z,3.92
2022-11-25T00:31:51.602Z,5.78
2022-11-25T00:34:18.923Z,4.38
2022-11-25T00:36:46.154Z,3.70
2022-11-25T00:39:13.484Z,5.22
2022-11-25T00:41:59.495Z,6.15
2022-11-25T00:44:36.764Z,4.50
2022-11-25T00:47:05.001Z,3.63
2022-11-25T00:49:32.183Z,4.07
2022-11-25T00:51:59.411Z,4.47
2022-11-25T00:54:26.661Z,5.53
2022-11-25T00:56:54.379Z,3.85
2022-11-25T00:59:21.626Z,4.22
2022-11-25T01:01:48.909Z,4.55
2022-11-25T01:04:16.254Z,5.95
2022-11-25T01:06:43.406Z,4.47
2022-11-25T01:09:10.620Z,4.32
2022-11-25T01:11:39.228Z,4.53
2022-11-25T01:14:06.484Z,5.13
2022-11-25T01:16:33.745Z,4.68
2022-11-25T01:19:01.017Z,4.22
2022-11-25T01:21:28.175Z,5.47
2022-11-25T01:23:55.354Z,4.72
2022-11-25T01:26:22.592Z,3.88
2022-11-25T01:28:49.769Z,4.45
2022-11-25T01:31:17.221Z,4.03
2022-11-25T01:33:44.419Z,6.75
2022-11-25T01:36:11.622Z,4.63
2022-11-25T01:38:38.832Z,3.50
2022-11-25T01:41:06.066Z,4.18
2022-11-25T01:43:33.219Z,3.70
2022-11-25T01:46:00.587Z,4.95
2022-11-25T01:48:27.812Z,3.95
2022-11-25T01:50:55.211Z,3.95
2022-11-25T01:53:22.416Z,5.85
2022-11-25T01:55:49.698Z,6.65
2022-11-25T01:58:16.814Z,5.82
2022-11-25T02:00:51.290Z,3.65
2022-11-25T02:03:18.628Z,5.07
2022-11-25T02:05:45.788Z,6.20
2022-11-25T02:08:14.079Z,4.18
2022-11-25T02:10:41.434Z,5.10
2022-11-25T02:13:08.654Z,4.05
2022-11-25T02:15:36.879Z,4.90
2022-11-25T02:18:04.498Z,4.72
2022-11-25T02:20:31.706Z,4.68
2022-11-25T02:23:00.204Z,3.72
2022-11-25T02:25:27.518Z,4.40
2022-11-25T02:27:56.823Z,4.10
2022-11-25T02:30:24.087Z,4.82
2022-11-25T02:32:51.442Z,5.35
2022-11-25T02:35:18.674Z,3.83
2022-11-25T02:37:45.896Z,4.57
2022-11-25T02:40:13.090Z,5.47
2022-11-25T02:42:40.352Z,5.20
2022-11-25T02:45:07.694Z,4.45
2022-11-25T02:47:34.955Z,6.32
2022-11-25T02:50:03.022Z,4.43
2022-11-25T02:52:30.451Z,4.13
2022-11-25T02:54:58.815Z,3.47
2022-11-25T02:57:26.088Z,4.78
2022-11-25T02:59:53.335Z,4.40
2022-11-25T03:02:20.701Z,5.38
2022-11-25T03:04:47.976Z,4.75
2022-11-25T03:07:15.243Z,4.35
2022-11-25T03:09:43.595Z,4.72
2022-11-25T03:12:22.012Z,5.40
2022-11-25T03:14:53.358Z,4.97
2022-11-25T03:17:20.586Z,4.47
2022-11-25T03:19:47.823Z,4.25
2022-11-25T03:22:15.131Z,4.53
2022-11-25T03:24:42.259Z,5.30
2022-11-25T03:27:09.466Z,5.07
2022-11-25T03:29:36.790Z,3.95
2022-11-25T03:32:08.207Z,4.47
2022-11-25T03:34:37.355Z,5.82
2022-11-25T03:37:05.042Z,4.30
2022-11-25T03:39:33.154Z,6.03
2022-11-25T03:42:00.503Z,3.83
2022-11-25T03:44:27.750Z,5.57
2022-11-25T03:46:54.905Z,5.75
2022-11-25T03:49:22.161Z,4.65
2022-11-25T03:51:49.479Z,9.30
2022-11-25T03:54:18.549Z,7.68
2022-11-25T03:57:09.005Z,6.20
2022-11-25T03:59:36.295Z,7.28
2022-11-25T04:02:03.589Z,4.10
2022-11-25T04:04:31.031Z,4.40
2022-11-25T04:06:58.714Z,4.43
2022-11-25T04:09:26.167Z,6.28
2022-11-25T04:12:13.720Z,5.68
2022-11-25T04:14:49.990Z,5.80
2022-11-25T04:17:17.275Z,5.85
2022-11-25T04:19:45.621Z,5.10
2022-11-25T04:22:13.721Z,6.55
2022-11-25T04:24:44.096Z,4.07
2022-11-25T04:27:13.972Z,3.78
2022-11-25T04:29:41.622Z,4.05
2022-11-25T04:32:10.394Z,5.32
2022-11-25T04:34:37.928Z,3.92
2022-11-25T04:37:05.474Z,4.97
2022-11-25T04:39:32.745Z,3.40
2022-11-25T04:42:24.482Z,4.28
2022-11-25T04:45:14.133Z,3.80
2022-11-25T04:47:39.031Z,4.00
2022-11-25T04:50:06.466Z,5.05
2022-11-25T04:52:39.358Z,4.60
2022-11-25T04:55:07.252Z,3.78
2022-11-25T04:57:34.519Z,4.40
2022-11-25T05:00:02.069Z,4.68
2022-11-25T05:02:29.793Z,7.00
2022-11-25T05:05:12.663Z,4.57
2022-11-25T05:07:40.236Z,4.97
2022-11-25T05:10:07.668Z,4.32
2022-11-25T05:12:41.347Z,4.22
2022-11-25T05:15:13.126Z,4.80
2022-11-25T05:17:42.829Z,3.95
2022-11-25T05:20:10.342Z,4.30
2022-11-25T05:22:37.762Z,4.32
2022-11-25T05:25:07.220Z,3.97
2022-11-25T05:27:39.661Z,3.72
2022-11-25T05:30:09.570Z,3.72
2022-11-25T05:32:37.934Z,4.65
2022-11-25T05:35:08.638Z,4.13
2022-11-25T05:37:37.574Z,3.85
2022-11-25T05:40:06.255Z,4.05
2022-11-25T05:42:33.400Z,4.20
2022-11-25T05:45:03.838Z,4.45
2022-11-25T05:47:32.545Z,4.70
2022-11-25T05:50:00.355Z,5.05
2022-11-25T05:52:27.627Z,4.57
2022-11-25T05:54:58.445Z,5.22
2022-11-25T05:57:28.707Z,5.63
2022-11-25T06:00:08.356Z,3.95
2022-11-25T06:02:49.727Z,4.50
2022-11-25T06:05:17.180Z,4.57
2022-11-25T06:07:44.487Z,4.90
2022-11-25T06:10:12.408Z,3.92
2022-11-25T06:12:41.369Z,3.05
2022-11-25T06:15:08.822Z,3.92
2022-11-25T06:17:36.995Z,4.22
2022-11-25T06:20:15.485Z,3.97
2022-11-25T06:22:42.823Z,4.95
2022-11-25T06:25:10.147Z,4.40
2022-11-25T06:28:10.872Z,3.95
2022-11-25T06:30:26.044Z,4.97
2022-11-25T06:33:09.163Z,3.17
2022-11-25T06:35:37.002Z,4.57
2022-11-25T06:38:04.310Z,4.03
2022-11-25T06:40:31.547Z,4.03
2022-11-25T06:42:58.719Z,3.72
2022-11-25T06:45:25.910Z,3.28
2022-11-25T06:47:53.697Z,4.53
2022-11-25T06:50:20.937Z,4.38
2022-11-25T06:52:48.106Z,4.10
2022-11-25T06:55:15.360Z,3.38
2022-11-25T06:57:42.593Z,5.53
2022-11-25T07:00:09.767Z,3.05
2022-11-25T07:02:42.822Z,3.95
2022-11-25T07:05:11.475Z,4.95
2022-11-25T07:07:38.731Z,4.75
2022-11-25T07:10:06.008Z,5.05
2022-11-25T07:12:33.186Z,3.70
2022-11-25T07:15:00.378Z,3.63
2022-11-25T07:17:27.583Z,4.63
2022-11-25T07:19:54.843Z,4.10
2022-11-25T07:22:22.980Z,3.67
2022-11-25T07:24:50.185Z,3.83
2022-11-25T07:27:17.416Z,4.28
2022-11-25T07:30:03.129Z,4.30
2022-11-25T07:32:31.892Z,4.43
2022-11-25T07:34:59.084Z,4.57
2022-11-25T07:37:27.685Z,2.78
2022-11-25T07:39:54.883Z,2.80
2022-11-25T07:42:22.106Z,3.20
2022-11-25T07:44:49.360Z,3.45
2022-11-25T07:47:45.931Z,3.38
2022-11-25T07:50:13.178Z,3.45
2022-11-25T07:52:40.933Z,5.93
2022-11-25T07:55:08.410Z,3.20
2022-11-25T07:57:35.647Z,4.25
2022-11-25T08:00:02.938Z,3.40
2022-11-25T08:02:39.066Z,2.72
2022-11-25T08:05:06.464Z,2.97
2022-11-25T08:07:36.648Z,3.15
2022-11-25T08:10:04.540Z,2.60
2022-11-25T08:12:31.728Z,3.42
2022-11-25T08:14:59.039Z,3.22
2022-11-25T08:17:26.331Z,2.92
2022-11-25T08:19:53.570Z,3.63
2022-11-25T08:22:20.783Z,3.47
2022-11-25T08:24:48.091Z,3.92
2022-11-25T08:27:15.270Z,5.43
2022-11-25T08:29:42.599Z,3.03
2022-11-25T08:32:11.967Z,3.25
2022-11-25T08:34:39.350Z,2.35
2022-11-25T08:37:08.085Z,3.47
2022-11-25T08:39:51.887Z,3.92
2022-11-25T08:44:47.591Z,3.15
2022-11-25T08:47:14.819Z,3.13
2022-11-25T08:49:42.323Z,2.38
2022-11-25T08:52:09.662Z,2.42
2022-11-25T08:54:36.823Z,2.65
2022-11-25T08:57:04.055Z,2.25
2022-11-25T08:59:31.213Z,2.50
2022-11-25T09:01:58.486Z,3.85
2022-11-25T09:04:25.802Z,2.55
2022-11-25T09:06:53.055Z,2.60
2022-11-25T09:09:20.314Z,5.10
2022-11-25T09:11:47.561Z,2.40
2022-11-25T09:14:14.928Z,2.58
2022-11-25T09:16:42.333Z,2.55
2022-11-25T09:19:09.613Z,2.97
2022-11-25T09:21:36.907Z,1.70
2022-11-25T09:24:04.268Z,2.63
2022-11-25T09:26:31.847Z,3.88
2022-11-25T09:28:59.103Z,2.72
2022-11-25T09:31:26.316Z,3.78
2022-11-25T09:33:53.575Z,2.97
2022-11-25T09:36:20.778Z,2.88
2022-11-25T09:38:48.035Z,3.75
2022-11-25T09:41:15.276Z,2.95
2022-11-25T09:44:01.391Z,1.95
2022-11-25T09:46:45.935Z,4.50
2022-11-25T09:49:14.730Z,3.20
2022-11-25T09:51:42.075Z,2.67
2022-11-25T09:54:09.289Z,2.35
2022-11-25T09:56:36.496Z,1.95
2022-11-25T09:59:03.793Z,3.95
2022-11-25T10:01:30.994Z,2.75
2022-11-25T10:03:58.323Z,2.25
2022-11-25T10:06:25.556Z,1.77
2022-11-25T10:08:52.907Z,2.50
2022-11-25T10:11:20.147Z,2.92
2022-11-25T10:13:47.357Z,2.38
2022-11-25T10:16:14.627Z,3.55
2022-11-25T10:18:41.861Z,2.25
2022-11-25T10:21:09.108Z,2.92
2022-11-25T10:23:36.768Z,2.25
2022-11-25T10:26:04.019Z,2.95
2022-11-25T10:28:31.256Z,2.20
2022-11-25T10:30:58.472Z,3.10
2022-11-25T10:33:25.797Z,3.20
2022-11-25T10:35:53.107Z,2.47
2022-11-25T10:38:20.506Z,3.00
2022-11-25T10:40:48.612Z,2.58
2022-11-25T10:43:15.879Z,3.28
2022-11-25T10:45:43.135Z,2.83
2022-11-25T10:48:10.520Z,3.20
2022-11-25T10:50:37.783Z,3.10
2022-11-25T10:53:04.934Z,2.85
2022-11-25T10:55:32.213Z,2.63
2022-11-25T10:57:59.363Z,3.03
2022-11-25T11:00:26.600Z,5.10
2022-11-25T11:02:53.947Z,2.83
2022-11-25T11:05:21.244Z,2.47
2022-11-25T11:07:48.513Z,2.47
2022-11-25T11:10:17.493Z,3.10
2022-11-25T11:12:44.647Z,2.22
2022-11-25T11:15:11.867Z,2.17
2022-11-25T11:17:39.109Z,2.38
2022-11-25T11:20:06.402Z,2.42
2022-11-25T11:22:33.559Z,1.85
2022-11-25T11:25:00.869Z,4.50
2022-11-25T11:27:28.093Z,1.92
2022-11-25T11:29:55.286Z,3.33
2022-11-25T11:32:22.443Z,2.65
2022-11-25T11:34:49.663Z,2.75
2022-11-25T11:37:16.802Z,2.97
2022-11-25T11:39:44.115Z,2.97
2022-11-25T11:42:11.387Z,2.58
2022-11-25T11:44:39.570Z,2.67
2022-11-25T11:47:06.780Z,2.92
2022-11-25T11:49:34.119Z,3.67
2022-11-25T11:52:01.418Z,3.90
2022-11-25T11:54:28.666Z,2.53
2022-11-25T11:56:56.114Z,3.22
2022-11-25T11:59:23.426Z,4.65
2022-11-25T12:01:50.654Z,3.28
2022-11-25T12:04:19.023Z,2.42
2022-11-25T12:06:46.234Z,2.33
2022-11-25T12:09:13.527Z,2.50
2022-11-25T12:11:40.679Z,2.60
2022-11-25T12:14:07.973Z,3.05
2022-11-25T12:16:35.170Z,2.92
2022-11-25T12:19:02.609Z,2.72
2022-11-25T12:21:29.798Z,2.65
2022-11-25T12:23:57.040Z,3.22
2022-11-25T12:26:24.194Z,2.83
2022-11-25T12:28:51.407Z,2.78
2022-11-25T12:31:18.623Z,2.35
2022-11-25T12:33:45.885Z,3.33
2022-11-25T12:36:13.404Z,2.70
2022-11-25T12:38:40.568Z,3.10
2022-11-25T12:41:07.821Z,3.05
2022-11-25T12:43:36.267Z,2.50
2022-11-25T12:46:03.548Z,2.65
2022-11-25T12:48:30.733Z,3.17
2022-11-25T12:50:57.980Z,2.10
2022-11-25T12:53:25.171Z,2.20
2022-11-25T12:55:52.408Z,3.08
2022-11-25T12:58:19.728Z,3.67
2022-11-25T13:00:47.056Z,3.20
2022-11-25T13:03:14.404Z,2.78
2022-11-25T13:05:41.806Z,2.47
2022-11-25T13:08:09.069Z,2.70
2022-11-25T13:10:36.355Z,2.40
2022-11-25T13:13:03.841Z,3.75
2022-11-25T13:15:32.078Z,2.50
2022-11-25T13:17:59.685Z,5.10
2022-11-25T13:20:27.070Z,3.13
2022-11-25T13:22:54.253Z,3.47
2022-11-25T13:25:21.625Z,2.97
2022-11-25T13:27:48.824Z,2.70
2022-11-25T13:30:16.055Z,2.72
2022-11-25T13:32:43.332Z,2.55
2022-11-25T13:35:10.643Z,2.90
2022-11-25T13:37:37.952Z,4.18
2022-11-25T13:40:05.250Z,3.65
2022-11-25T13:42:32.494Z,3.38
2022-11-25T13:44:59.640Z,3.05
2022-11-25T13:47:26.870Z,2.60
2022-11-25T13:49:54.559Z,2.80
2022-11-25T13:52:21.824Z,2.42
2022-11-25T13:54:49.019Z,3.85
2022-11-25T13:57:16.307Z,2.58
2022-11-25T13:59:43.729Z,2.67
2022-11-25T14:02:11.153Z,2.28
2022-11-25T14:04:38.812Z,2.95
2022-11-25T14:07:06.092Z,3.40
2022-11-25T14:09:33.388Z,2.90
2022-11-25T14:12:00.712Z,2.53
2022-11-25T14:14:27.928Z,2.05
2022-11-25T14:16:55.183Z,4.00
2022-11-25T14:22:10.737Z,3.08
2022-11-25T14:24:38.053Z,2.50
2022-11-25T14:27:05.250Z,3.85
2022-11-25T14:29:32.425Z,2.38
2022-11-25T14:31:59.793Z,3.03
2022-11-25T14:34:27.313Z,2.47
2022-11-25T14:36:54.545Z,3.35
2022-11-25T14:39:21.771Z,2.65
2022-11-25T14:41:49.072Z,3.05
2022-11-25T14:44:16.255Z,3.13
2022-11-25T14:46:43.551Z,2.75
2022-11-25T14:49:30.777Z,2.30
2022-11-25T14:51:58.097Z,3.72
2022-11-25T14:54:25.351Z,2.30
2022-11-25T14:56:52.555Z,2.75
2022-11-25T14:59:19.811Z,3.55
2022-11-25T15:01:47.063Z,3.15
2022-11-25T15:04:14.329Z,2.63
2022-11-25T15:06:42.718Z,3.05
2022-11-25T15:09:09.939Z,2.70
2022-11-25T15:11:37.423Z,4.47
2022-11-25T15:14:04.664Z,2.95
2022-11-25T15:16:31.947Z,2.90
2022-11-25T15:18:59.226Z,3.38
2022-11-25T15:21:26.438Z,2.83
2022-11-25T15:23:53.677Z,2.80
2022-11-25T15:26:21.003Z,3.65
2022-11-25T15:28:48.263Z,3.15
2022-11-25T15:31:15.489Z,3.70
2022-11-25T15:33:42.820Z,3.10
2022-11-25T15:36:10.023Z,2.90
2022-11-25T15:38:37.316Z,4.05
2022-11-25T15:41:04.570Z,2.95
2022-11-25T15:43:31.848Z,3.33
2022-11-25T15:46:00.109Z,3.47
2022-11-25T15:48:27.458Z,4.80
2022-11-25T15:50:54.651Z,2.60
2022-11-25T15:53:24.819Z,3.15
2022-11-25T15:55:53.910Z,3.35
2022-11-25T15:58:21.136Z,2.97
2022-11-25T16:00:48.410Z,3.03
2022-11-25T16:03:15.623Z,3.33
2022-11-25T16:05:42.893Z,3.42
2022-11-25T16:08:10.047Z,2.63
2022-11-25T16:10:37.708Z,2.75
2022-11-25T16:13:04.916Z,2.67
2022-11-25T16:15:32.101Z,3.30
2022-11-25T16:18:11.650Z,2.85
2022-11-25T16:20:46.510Z,3.38
2022-11-25T16:23:13.663Z,3.53
2022-11-25T16:25:40.936Z,4.25
2022-11-25T16:28:10.654Z,3.50
2022-11-25T16:30:38.619Z,4.45
2022-11-25T16:33:06.070Z,6.18
2022-11-25T16:35:33.351Z,7.85
2022-11-25T16:38:00.523Z,9.65
2022-11-25T16:40:27.960Z,8.93
2022-11-25T16:42:55.391Z,8.10
2022-11-25T16:45:22.907Z,9.20
2022-11-25T16:47:50.134Z,9.02
2022-11-25T16:50:17.368Z,7.68
2022-11-25T16:52:44.583Z,8.95
2022-11-25T16:55:11.809Z,7.40
2022-11-25T16:57:38.992Z,7.10
2022-11-25T17:00:08.580Z,6.22
2022-11-25T17:02:35.988Z,8.15
2022-11-25T17:05:03.251Z,7.82
2022-11-25T17:07:33.255Z,5.90
2022-11-25T17:10:01.057Z,6.18
2022-11-25T17:12:28.255Z,6.30
2022-11-25T17:14:55.608Z,6.35
2022-11-25T17:17:24.763Z,6.15
2022-11-25T17:19:52.238Z,7.13
2022-11-25T17:22:19.485Z,6.32
2022-11-25T17:24:46.742Z,5.50
2022-11-25T17:27:13.994Z,5.65
2022-11-25T17:29:41.586Z,4.50
2022-11-25T17:32:09.260Z,5.40
2022-11-25T17:34:39.548Z,5.43
2022-11-25T17:37:07.004Z,5.55
2022-11-25T17:39:34.199Z,5.47
2022-11-25T17:42:02.667Z,5.13
2022-11-25T17:44:30.251Z,4.97
2022-11-25T17:46:57.464Z,5.50
2022-11-25T17:49:24.666Z,5.50
2022-11-25T17:51:52.008Z,5.40
2022-11-25T17:54:19.186Z,5.38
2022-11-25T17:56:50.699Z,4.88
2022-11-25T17:59:19.768Z,6.10
2022-11-25T18:01:47.041Z,5.07
2022-11-25T18:04:16.318Z,5.00
2022-11-25T18:06:43.945Z,3.60
2022-11-25T18:09:11.221Z,3.40
2022-11-25T18:11:42.511Z,4.22
2022-11-25T18:14:12.710Z,4.35
2022-11-25T18:16:41.468Z,4.13
2022-11-25T18:19:08.825Z,4.55
2022-11-25T18:21:36.035Z,4.75
2022-11-25T18:24:03.381Z,5.35
2022-11-25T18:26:30.791Z,6.28
2022-11-25T18:28:58.023Z,4.20
2022-11-25T18:31:25.210Z,4.55
2022-11-25T18:33:52.513Z,5.35
2022-11-25T18:36:19.890Z,5.18
2022-11-25T18:38:48.427Z,5.30
2022-11-25T18:41:15.641Z,4.95
2022-11-25T18:43:42.887Z,6.25
2022-11-25T18:46:10.166Z,5.78
2022-11-25T18:48:37.472Z,4.43
2022-11-25T18:51:04.972Z,4.38
2022-11-25T18:53:33.555Z,4.75
2022-11-25T18:56:00.707Z,4.93
2022-11-25T18:58:27.916Z,3.53
2022-11-25T19:00:55.138Z,5.00
2022-11-25T19:03:22.356Z,4.85
2022-11-25T19:05:50.108Z,4.72
2022-11-25T19:08:18.648Z,4.75
2022-11-25T19:10:45.921Z,3.80
2022-11-25T19:13:13.213Z,4.57
2022-11-25T19:15:40.441Z,5.07
2022-11-25T19:18:07.689Z,3.97
2022-11-25T19:20:35.064Z,4.32
2022-11-25T19:23:02.233Z,4.40
2022-11-25T19:25:29.523Z,5.00
2022-11-25T19:27:56.707Z,4.50
2022-11-25T19:30:23.933Z,4.90
2022-11-25T19:32:51.146Z,5.65
2022-11-25T19:35:18.559Z,4.65
2022-11-25T19:37:45.775Z,7.35
2022-11-25T19:40:12.986Z,5.75
2022-11-25T19:42:40.242Z,5.18
2022-11-25T19:45:07.479Z,4.55
2022-11-25T19:47:34.638Z,4.68
2022-11-25T19:50:02.172Z,3.83
2022-11-25T19:52:29.354Z,4.40
2022-11-25T19:54:56.604Z,4.28
2022-11-25T19:57:23.823Z,4.10
2022-11-25T19:59:51.044Z,4.28
2022-11-25T20:02:18.233Z,4.38
2022-11-25T20:04:45.541Z,4.05
2022-11-25T20:07:12.827Z,5.25
2022-11-25T20:09:40.019Z,7.57
2022-11-25T20:12:13.337Z,4.43
2022-11-25T20:14:40.672Z,5.15
2022-11-25T20:17:12.048Z,5.10
2022-11-25T20:19:39.298Z,4.60
2022-11-25T20:22:06.518Z,4.38
2022-11-25T20:24:33.841Z,4.25
2022-11-25T20:27:01.104Z,5.47
2022-11-25T20:29:30.682Z,4.70
2022-11-25T20:31:58.437Z,3.88
2022-11-25T20:34:25.730Z,4.75
2022-11-25T20:36:52.995Z,4.93
2022-11-25T20:39:20.315Z,4.95
2022-11-25T20:41:47.638Z,4.47
2022-11-25T20:44:14.876Z,6.43
2022-11-25T20:46:42.141Z,3.67
2022-11-25T20:49:09.395Z,5.22
2022-11-25T20:51:36.659Z,5.05
2022-11-25T20:54:05.493Z,4.50
2022-11-25T20:56:32.977Z,6.72
2022-11-25T20:59:00.293Z,4.57
2022-11-25T21:01:27.550Z,6.43
2022-11-25T21:03:54.827Z,4.70
2022-11-25T21:06:22.023Z,4.72
2022-11-25T21:08:49.352Z,4.20
2022-11-25T21:11:17.196Z,4.35
2022-11-25T21:13:44.428Z,5.95
2022-11-25T21:16:11.781Z,6.95
2022-11-25T21:18:39.101Z,6.13
2022-11-25T21:21:06.367Z,4.45
2022-11-25T21:23:33.566Z,5.85
2022-11-25T21:26:00.798Z,5.07
2022-11-25T21:28:28.018Z,5.93
2022-11-25T21:30:55.547Z,5.95
2022-11-25T21:33:22.720Z,5.18
2022-11-25T21:35:50.811Z,6.53
2022-11-25T21:38:18.073Z,5.85
2022-11-25T21:40:45.328Z,4.63
2022-11-25T21:43:15.022Z,4.78
2022-11-25T21:45:45.820Z,4.75
2022-11-25T21:48:13.050Z,5.47
2022-11-25T21:50:40.271Z,5.10
2022-11-25T21:53:07.471Z,4.65
2022-11-25T21:55:34.776Z,6.65
2022-11-25T21:58:02.081Z,5.53
2022-11-25T22:00:29.385Z,8.68
2022-11-25T22:02:56.692Z,6.15
2022-11-25T22:05:25.725Z,4.40
2022-11-25T22:07:54.937Z,4.80
2022-11-25T22:10:22.851Z,4.63
2022-11-25T22:12:50.062Z,5.22
2022-11-25T22:15:17.365Z,5.80
2022-11-25T22:17:44.856Z,4.88
2022-11-25T22:20:11.999Z,3.88
2022-11-25T22:22:39.226Z,4.32
2022-11-25T22:25:06.468Z,4.53
2022-11-25T22:27:36.405Z,4.53
2022-11-25T22:30:03.702Z,4.55
2022-11-25T22:32:30.908Z,6.03
2022-11-25T22:34:58.143Z,4.68
2022-11-25T22:37:25.408Z,4.68
2022-11-25T22:39:52.666Z,4.18
2022-11-25T22:42:19.828Z,4.72
2022-11-25T22:44:47.178Z,4.10
2022-11-25T22:47:14.331Z,4.10
2022-11-25T22:49:41.713Z,4.30
2022-11-25T22:52:09.046Z,4.13
2022-11-25T22:54:36.786Z,3.85
2022-11-25T22:57:04.107Z,5.20
2022-11-25T22:59:31.305Z,4.13
2022-11-25T23:01:58.558Z,4.53
2022-11-25T23:04:25.750Z,5.63
2022-11-25T23:06:52.996Z,4.07
2022-11-25T23:09:20.247Z,3.97
2022-11-25T23:11:47.776Z,4.88
2022-11-25T23:14:14.926Z,5.13
2022-11-25T23:16:42.323Z,4.30
2022-11-25T23:19:09.545Z,5.20
2022-11-25T23:21:36.795Z,4.18
2022-11-25T23:24:04.118Z,4.85
2022-11-25T23:26:35.044Z,3.63
2022-11-25T23:29:02.627Z,4.97
2022-11-25T23:31:29.821Z,5.03
2022-11-25T23:33:57.075Z,4.93
2022-11-25T23:36:24.255Z,3.92
2022-11-25T23:38:51.482Z,8.18
2022-11-25T23:41:18.979Z,3.58
2022-11-25T23:43:46.324Z,4.20
2022-11-25T23:46:13.907Z,4.38
2022-11-25T23:48:41.272Z,4.90
2022-11-25T23:51:08.740Z,4.47
2022-11-25T23:53:36.068Z,3.47
2022-11-25T23:56:03.282Z,4.40
2022-11-25T23:58:31.480Z,4.72
